createdAt,value
2018-07-16T00:00:16.022Z,7.93
2018-07-16T00:02:44.286Z,8.63
2018-07-16T00:05:12.693Z,8.97
2018-07-16T00:07:40.873Z,8.23
2018-07-16T00:10:08.956Z,9.10
2018-07-16T00:12:37.249Z,8.33
2018-07-16T00:15:05.505Z,8.17
2018-07-16T00:17:34.123Z,9.30
2018-07-16T00:20:02.746Z,9.57
2018-07-16T00:22:30.966Z,9.03
2018-07-16T00:24:59.173Z,8.13
2018-07-16T00:27:27.436Z,8.37
2018-07-16T00:29:55.611Z,8.87
2018-07-16T00:32:23.817Z,10.93
2018-07-16T00:34:52.002Z,8.10
2018-07-16T00:37:20.228Z,8.83
2018-07-16T00:39:48.458Z,10.30
2018-07-16T00:42:16.696Z,9.83
2018-07-16T00:44:44.948Z,9.37
2018-07-16T00:47:13.183Z,11.80
2018-07-16T00:49:41.381Z,9.13
2018-07-16T00:52:09.603Z,9.20
2018-07-16T00:54:37.803Z,8.97
2018-07-16T00:57:06.006Z,9.20
2018-07-16T00:59:33.961Z,9.20
2018-07-16T01:02:02.166Z,8.93
2018-07-16T01:04:30.368Z,7.77
2018-07-16T01:06:58.574Z,8.37
2018-07-16T01:09:26.757Z,8.10
2018-07-16T01:11:54.973Z,9.83
2018-07-16T01:14:23.179Z,9.03
2018-07-16T01:16:51.358Z,7.90
2018-07-16T01:19:19.561Z,8.43
2018-07-16T01:21:47.480Z,8.17
2018-07-16T01:24:15.745Z,7.30
2018-07-16T01:26:44.001Z,8.10
2018-07-16T01:29:12.205Z,8.17
2018-07-16T01:31:40.415Z,8.50
2018-07-16T01:34:08.650Z,7.90
2018-07-16T01:36:36.841Z,8.97
2018-07-16T01:39:05.558Z,9.20
2018-07-16T01:41:33.734Z,7.53
2018-07-16T01:44:01.686Z,8.37
2018-07-16T01:46:29.855Z,8.57
2018-07-16T01:48:58.090Z,7.97
2018-07-16T01:51:26.269Z,7.67
2018-07-16T01:53:54.449Z,8.23
2018-07-16T01:56:22.645Z,8.70
2018-07-16T01:58:50.820Z,9.23
2018-07-16T02:01:19.094Z,8.03
2018-07-16T02:03:47.317Z,8.43
2018-07-16T02:06:15.501Z,7.23
2018-07-16T02:08:43.801Z,8.53
2018-07-16T02:11:12.014Z,6.90
2018-07-16T02:13:40.205Z,7.63
2018-07-16T02:16:08.146Z,6.80
2018-07-16T02:18:36.329Z,7.50
2018-07-16T02:21:04.520Z,7.00
2018-07-16T02:23:32.709Z,7.60
2018-07-16T02:26:00.910Z,7.13
2018-07-16T02:28:29.101Z,7.70
2018-07-16T02:30:57.417Z,7.63
2018-07-16T02:33:25.609Z,7.80
2018-07-16T02:35:53.820Z,7.97
2018-07-16T02:38:22.054Z,7.57
2018-07-16T02:40:50.241Z,8.13
2018-07-16T02:43:18.422Z,7.37
2018-07-16T02:45:46.640Z,6.80
2018-07-16T02:48:14.826Z,6.83
2018-07-16T02:50:43.026Z,6.90
2018-07-16T02:53:11.232Z,6.53
2018-07-16T02:55:39.436Z,6.63
2018-07-16T02:58:07.665Z,7.13
2018-07-16T03:00:35.877Z,7.50
2018-07-16T03:03:04.086Z,6.07
2018-07-16T03:05:32.039Z,6.87
2018-07-16T03:08:00.246Z,6.60
2018-07-16T03:10:28.448Z,5.50
2018-07-16T03:12:56.645Z,5.47
2018-07-16T03:15:25.129Z,5.70
2018-07-16T03:17:53.403Z,6.20
2018-07-16T03:20:21.527Z,5.07
2018-07-16T03:22:49.461Z,5.80
2018-07-16T03:25:17.676Z,5.77
2018-07-16T03:27:45.866Z,5.50
2018-07-16T03:30:14.055Z,5.50
2018-07-16T03:32:42.245Z,6.20
2018-07-16T03:35:10.444Z,5.33
2018-07-16T03:37:38.641Z,4.93
2018-07-16T03:40:06.853Z,5.07
2018-07-16T03:42:35.054Z,5.00
2018-07-16T03:45:03.601Z,6.30
2018-07-16T03:47:31.797Z,5.30
2018-07-16T03:49:59.997Z,5.90
2018-07-16T03:52:28.226Z,5.50
2018-07-16T03:54:56.426Z,5.53
2018-07-16T03:57:24.657Z,5.30
2018-07-16T03:59:53.175Z,5.33
2018-07-16T04:02:21.353Z,5.20
2018-07-16T04:04:49.549Z,5.43
2018-07-16T04:07:17.767Z,5.50
2018-07-16T04:09:45.983Z,5.57
2018-07-16T04:12:14.170Z,5.50
2018-07-16T04:14:42.383Z,5.40
2018-07-16T04:17:10.607Z,12.60
2018-07-16T04:19:38.805Z,5.37
2018-07-16T04:22:07.220Z,4.83
2018-07-16T04:24:35.434Z,4.50
2018-07-16T04:27:03.631Z,5.33
2018-07-16T04:29:31.858Z,4.80
2018-07-16T04:32:00.045Z,4.33
2018-07-16T04:34:28.253Z,5.20
2018-07-16T04:36:56.431Z,5.50
2018-07-16T04:39:24.653Z,4.57
2018-07-16T04:41:52.853Z,5.83
2018-07-16T04:44:21.243Z,5.30
2018-07-16T04:46:49.429Z,5.07
2018-07-16T04:49:17.641Z,5.00
2018-07-16T04:51:45.845Z,5.80
2018-07-16T04:54:14.058Z,5.80
2018-07-16T04:56:42.239Z,6.23
2018-07-16T04:59:10.456Z,16.93
2018-07-16T05:01:38.645Z,7.77
2018-07-16T05:04:06.840Z,7.80
2018-07-16T05:06:35.085Z,9.10
2018-07-16T05:09:03.742Z,7.93
2018-07-16T05:11:31.940Z,9.03
2018-07-16T05:14:00.126Z,8.43
2018-07-16T05:16:28.341Z,9.80
2018-07-16T05:18:56.550Z,11.40
2018-07-16T05:21:24.780Z,11.33
2018-07-16T05:23:52.997Z,9.93
2018-07-16T05:26:21.246Z,12.07
2018-07-16T05:28:49.468Z,13.93
2018-07-16T05:31:17.673Z,12.73
2018-07-16T05:33:45.870Z,12.53
2018-07-16T05:36:14.131Z,14.43
2018-07-16T05:38:42.329Z,15.03
2018-07-16T05:41:10.524Z,18.60
2018-07-16T05:43:38.736Z,13.40
2018-07-16T05:46:06.961Z,14.60
2018-07-16T05:48:35.166Z,15.17
2018-07-16T05:51:03.381Z,16.60
2018-07-16T05:53:31.605Z,16.67
2018-07-16T05:55:59.826Z,16.20
2018-07-16T05:58:28.014Z,16.70
2018-07-16T06:00:56.263Z,15.57
2018-07-16T06:03:24.500Z,14.37
2018-07-16T06:05:52.737Z,13.77
2018-07-16T06:08:20.940Z,15.00
2018-07-16T06:10:49.282Z,14.80
2018-07-16T06:13:17.465Z,16.90
2018-07-16T06:15:45.700Z,14.57
2018-07-16T06:18:13.970Z,17.37
2018-07-16T06:20:42.257Z,16.00
2018-07-16T06:23:10.469Z,14.90
2018-07-16T06:25:38.666Z,14.57
2018-07-16T06:28:06.880Z,14.53
2018-07-16T06:30:35.101Z,16.20
2018-07-16T06:33:03.470Z,15.27
2018-07-16T06:35:31.780Z,13.57
2018-07-16T06:37:59.976Z,12.77
2018-07-16T06:40:28.298Z,13.37
2018-07-16T06:42:56.398Z,11.97
2018-07-16T06:45:24.616Z,12.27
2018-07-16T06:47:53.817Z,11.73
2018-07-16T06:50:22.023Z,12.00
2018-07-16T06:52:50.232Z,10.53
2018-07-16T06:55:18.640Z,9.00
2018-07-16T06:57:46.954Z,9.83
2018-07-16T07:00:15.206Z,10.30
2018-07-16T07:02:43.469Z,10.33
2018-07-16T07:05:11.770Z,13.40
2018-07-16T07:07:40.039Z,11.10
2018-07-16T07:10:08.422Z,23.37
2018-07-16T07:12:36.602Z,11.30
2018-07-16T07:15:04.878Z,11.77
2018-07-16T07:17:33.201Z,11.53
2018-07-16T07:20:01.450Z,14.23
2018-07-16T07:22:29.720Z,13.67
2018-07-16T07:24:57.957Z,11.47
2018-07-16T07:27:26.185Z,11.20
2018-07-16T07:29:54.679Z,10.37
2018-07-16T07:32:23.182Z,10.37
2018-07-16T07:34:51.469Z,9.77
2018-07-16T07:37:19.947Z,9.23
2018-07-16T07:39:48.678Z,8.80
2018-07-16T07:42:17.081Z,10.20
2018-07-16T07:44:45.724Z,9.90
2018-07-16T07:47:14.106Z,9.77
2018-07-16T07:49:42.550Z,9.37
2018-07-16T07:52:10.906Z,9.07
2018-07-16T07:54:39.304Z,9.20
2018-07-16T07:57:07.796Z,9.20
2018-07-16T07:59:36.132Z,9.40
2018-07-16T08:02:04.700Z,8.40
2018-07-16T08:04:33.120Z,7.67
2018-07-16T08:07:07.132Z,7.53
2018-07-16T08:09:35.504Z,7.83
2018-07-16T08:12:03.811Z,7.50
2018-07-16T08:14:32.708Z,9.20
2018-07-16T08:17:02.758Z,8.90
2018-07-16T08:19:32.099Z,8.33
2018-07-16T08:22:00.519Z,6.60
2018-07-16T08:24:28.823Z,8.67
2018-07-16T08:26:57.116Z,7.03
2018-07-16T08:29:25.455Z,9.60
2018-07-16T08:31:53.867Z,8.17
2018-07-16T08:34:22.095Z,6.83
2018-07-16T08:36:51.169Z,6.93
2018-07-16T08:39:19.597Z,6.83
2018-07-16T08:41:48.046Z,6.90
2018-07-16T08:44:16.594Z,7.40
2018-07-16T08:46:44.956Z,7.43
2018-07-16T08:49:13.489Z,9.63
2018-07-16T08:51:42.879Z,6.90
2018-07-16T08:54:11.266Z,5.77
2018-07-16T08:56:39.665Z,6.00
2018-07-16T08:59:08.082Z,7.33
2018-07-16T09:01:37.382Z,5.80
2018-07-16T09:04:05.997Z,5.87
2018-07-16T09:06:34.447Z,5.77
2018-07-16T09:09:03.284Z,5.30
2018-07-16T09:11:32.622Z,9.87
2018-07-16T09:14:01.635Z,5.60
2018-07-16T09:16:30.042Z,6.00
2018-07-16T09:18:58.403Z,5.57
2018-07-16T09:21:26.802Z,6.40
2018-07-16T09:23:55.174Z,6.00
2018-07-16T09:26:24.457Z,6.07
2018-07-16T09:28:52.782Z,6.20
2018-07-16T09:31:21.163Z,5.93
2018-07-16T09:33:49.547Z,4.80
2018-07-16T09:36:17.941Z,6.67
2018-07-16T09:38:46.339Z,4.90
2018-07-16T09:41:14.729Z,5.03
2018-07-16T09:43:44.853Z,5.10
2018-07-16T09:46:13.239Z,6.00
2018-07-16T09:48:42.267Z,4.80
2018-07-16T09:51:11.082Z,7.03
2018-07-16T09:53:39.422Z,5.03
2018-07-16T09:56:07.958Z,5.30
2018-07-16T09:58:36.394Z,4.50
2018-07-16T10:01:10.130Z,5.30
2018-07-16T10:03:38.561Z,5.23
2018-07-16T10:06:07.166Z,3.60
2018-07-16T10:08:37.098Z,3.57
2018-07-16T10:11:05.505Z,4.50
2018-07-16T10:13:33.852Z,3.57
2018-07-16T10:16:02.281Z,2.40
2018-07-16T10:18:30.666Z,2.20
2018-07-16T10:20:59.107Z,2.20
2018-07-16T10:23:27.170Z,3.63
2018-07-16T10:25:55.516Z,3.20
2018-07-16T10:28:24.098Z,3.43
2018-07-16T10:30:52.398Z,3.10
2018-07-16T10:33:20.802Z,3.30
2018-07-16T10:35:49.194Z,4.20
2018-07-16T10:38:17.698Z,4.70
2018-07-16T10:40:46.050Z,4.13
2018-07-16T10:43:15.064Z,4.40
2018-07-16T10:45:43.616Z,4.70
2018-07-16T10:48:12.183Z,4.27
2018-07-16T10:50:40.467Z,4.33
2018-07-16T10:53:08.898Z,4.13
2018-07-16T10:55:37.227Z,4.03
2018-07-16T10:58:05.770Z,3.40
2018-07-16T11:00:34.033Z,4.00
2018-07-16T11:03:03.470Z,4.47
2018-07-16T11:05:31.728Z,7.63
2018-07-16T11:08:00.026Z,4.73
2018-07-16T11:10:28.299Z,3.37
2018-07-16T11:12:56.691Z,3.77
2018-07-16T11:15:25.213Z,3.80
2018-07-16T11:17:53.619Z,6.50
2018-07-16T11:20:21.971Z,3.20
2018-07-16T11:22:50.416Z,3.33
2018-07-16T11:25:18.450Z,3.10
2018-07-16T11:27:46.749Z,2.83
2018-07-16T11:30:15.146Z,2.87
2018-07-16T11:32:43.463Z,2.60
2018-07-16T11:35:12.456Z,3.60
2018-07-16T11:37:41.586Z,3.60
2018-07-16T11:40:09.928Z,4.50
2018-07-16T11:42:38.293Z,3.07
2018-07-16T11:45:06.623Z,3.00
2018-07-16T11:47:34.890Z,4.47
2018-07-16T11:50:03.143Z,3.00
2018-07-16T11:52:31.391Z,3.20
2018-07-16T11:54:59.637Z,2.80
2018-07-16T11:57:27.652Z,3.33
2018-07-16T11:59:55.906Z,4.37
2018-07-16T12:02:24.195Z,2.77
2018-07-16T12:04:52.420Z,3.40
2018-07-16T12:07:20.758Z,3.30
2018-07-16T12:09:51.370Z,3.00
2018-07-16T12:12:19.740Z,3.33
2018-07-16T12:14:47.951Z,2.17
2018-07-16T12:17:16.186Z,2.57
2018-07-16T12:19:44.463Z,2.60
2018-07-16T12:22:12.764Z,3.00
2018-07-16T12:24:41.153Z,2.87
2018-07-16T12:27:10.652Z,3.00
2018-07-16T12:29:38.882Z,3.07
2018-07-16T12:32:06.993Z,2.47
2018-07-16T12:34:35.305Z,2.20
2018-07-16T12:37:03.655Z,2.47
2018-07-16T12:39:32.003Z,2.20
2018-07-16T12:42:00.408Z,2.10
2018-07-16T12:44:29.653Z,3.30
2018-07-16T12:46:58.053Z,2.70
2018-07-16T12:49:26.422Z,4.23
2018-07-16T12:51:55.567Z,3.13
2018-07-16T12:54:23.894Z,2.40
2018-07-16T12:56:52.225Z,2.30
2018-07-16T12:59:20.577Z,2.03
2018-07-16T13:01:48.939Z,2.53
2018-07-16T13:04:17.001Z,2.00
2018-07-16T13:06:45.571Z,2.20
2018-07-16T13:09:13.870Z,2.97
2018-07-16T13:11:43.209Z,2.30
2018-07-16T13:14:11.537Z,2.70
2018-07-16T13:16:39.810Z,2.50
2018-07-16T13:19:08.785Z,2.40
2018-07-16T13:21:36.989Z,2.73
2018-07-16T13:24:05.361Z,2.03
2018-07-16T13:26:33.796Z,3.47
2018-07-16T13:29:02.162Z,2.77
2018-07-16T13:31:30.467Z,2.50
2018-07-16T13:33:59.038Z,3.77
2018-07-16T13:36:27.317Z,6.43
2018-07-16T13:38:55.569Z,2.73
2018-07-16T13:41:23.879Z,2.23
2018-07-16T13:43:52.187Z,2.60
2018-07-16T13:46:20.563Z,4.30
2018-07-16T13:48:48.971Z,3.10
2018-07-16T13:51:17.635Z,2.60
2018-07-16T13:53:45.890Z,3.40
2018-07-16T13:56:14.235Z,2.73
2018-07-16T13:58:42.516Z,2.80
2018-07-16T14:01:10.890Z,3.03
2018-07-16T14:03:39.232Z,5.60
2018-07-16T14:06:07.441Z,3.77
2018-07-16T14:08:35.719Z,3.70
2018-07-16T14:11:03.994Z,3.90
2018-07-16T14:13:32.393Z,3.60
2018-07-16T14:16:01.275Z,4.57
2018-07-16T14:18:29.702Z,3.53
2018-07-16T14:20:58.092Z,5.83
2018-07-16T14:23:26.446Z,5.67
2018-07-16T14:25:54.875Z,3.83
2018-07-16T14:28:24.525Z,3.63
2018-07-16T14:30:52.889Z,4.10
2018-07-16T14:33:21.250Z,8.67
2018-07-16T14:35:49.913Z,3.70
2018-07-16T14:38:18.311Z,3.20
2018-07-16T14:40:47.267Z,4.60
2018-07-16T14:43:15.521Z,4.90
2018-07-16T14:45:43.529Z,2.90
2018-07-16T14:48:11.797Z,3.63
2018-07-16T14:50:40.015Z,3.50
2018-07-16T14:53:08.410Z,4.40
2018-07-16T14:55:36.644Z,4.80
2018-07-16T14:58:05.030Z,5.63
2018-07-16T15:03:36.249Z,4.40
2018-07-16T15:06:04.596Z,4.87
2018-07-16T15:08:32.834Z,4.93
2018-07-16T15:11:01.046Z,4.10
2018-07-16T15:13:29.270Z,3.43
2018-07-16T15:15:57.541Z,3.87
2018-07-16T15:18:25.752Z,4.40
2018-07-16T15:20:54.233Z,7.80
2018-07-16T15:23:22.373Z,5.27
2018-07-16T15:25:50.605Z,5.73
2018-07-16T15:28:18.829Z,4.27
2018-07-16T15:30:47.201Z,4.10
2018-07-16T15:33:15.442Z,4.10
2018-07-16T15:35:43.761Z,5.30
2018-07-16T15:38:11.975Z,5.10
2018-07-16T15:40:40.202Z,7.40
2018-07-16T15:43:08.493Z,5.07
2018-07-16T15:45:36.833Z,4.40
2018-07-16T15:48:05.085Z,4.57
2018-07-16T15:50:33.463Z,4.10
2018-07-16T15:53:01.654Z,4.63
2018-07-16T15:55:30.118Z,3.83
2018-07-16T15:57:58.308Z,6.53
2018-07-16T16:00:26.489Z,4.40
2018-07-16T16:02:54.901Z,4.30
2018-07-16T16:05:23.002Z,4.50
2018-07-16T16:07:51.345Z,4.70
2018-07-16T16:10:19.609Z,5.40
2018-07-16T16:12:47.780Z,5.77
2018-07-16T16:15:16.123Z,4.57
2018-07-16T16:17:44.335Z,3.40
2018-07-16T16:20:12.573Z,3.40
2018-07-16T16:22:40.818Z,3.70
2018-07-16T16:25:09.127Z,3.80
2018-07-16T16:27:37.313Z,3.60
2018-07-16T16:30:06.291Z,3.43
2018-07-16T16:32:34.533Z,5.80
2018-07-16T16:35:02.805Z,3.87
2018-07-16T16:37:30.783Z,3.07
2018-07-16T16:39:59.001Z,3.10
2018-07-16T16:42:27.222Z,4.30
2018-07-16T16:44:55.464Z,3.90
2018-07-16T16:47:23.693Z,3.17
2018-07-16T16:49:51.902Z,3.00
2018-07-16T16:52:20.318Z,3.13
2018-07-16T16:54:48.538Z,3.60
2018-07-16T16:57:16.762Z,4.53
2018-07-16T16:59:45.222Z,3.23
2018-07-16T17:02:13.434Z,3.50
2018-07-16T17:04:41.549Z,4.30
2018-07-16T17:07:09.776Z,3.63
2018-07-16T17:09:38.001Z,4.20
2018-07-16T17:12:06.194Z,4.20
2018-07-16T17:14:34.489Z,3.43
2018-07-16T17:17:03.601Z,3.60
2018-07-16T17:19:32.438Z,4.20
2018-07-16T17:22:00.661Z,4.00
2018-07-16T17:24:29.065Z,3.90
2018-07-16T17:26:57.261Z,4.00
2018-07-16T17:29:25.460Z,4.47
2018-07-16T17:31:53.685Z,4.03
2018-07-16T17:34:21.889Z,5.17
2018-07-16T17:36:50.209Z,4.53
2018-07-16T17:39:18.433Z,4.67
2018-07-16T17:41:46.714Z,5.03
2018-07-16T17:44:14.934Z,5.60
2018-07-16T17:46:43.167Z,5.77
2018-07-16T17:49:11.435Z,5.70
2018-07-16T17:51:39.626Z,5.17
2018-07-16T17:54:07.859Z,5.80
2018-07-16T17:56:36.089Z,6.90
2018-07-16T17:59:04.369Z,5.93
2018-07-16T18:01:32.657Z,5.10
2018-07-16T18:04:01.095Z,5.23
2018-07-16T18:06:29.290Z,5.00
2018-07-16T18:08:57.477Z,5.70
2018-07-16T18:11:25.720Z,5.00
2018-07-16T18:13:54.123Z,3.80
2018-07-16T18:16:22.327Z,5.03
2018-07-16T18:18:50.273Z,4.40
2018-07-16T18:21:18.569Z,4.40
2018-07-16T18:23:46.778Z,4.33
2018-07-16T18:26:14.998Z,5.67
2018-07-16T18:28:43.234Z,4.20
2018-07-16T18:31:11.589Z,4.07
2018-07-16T18:33:39.828Z,4.57
2018-07-16T18:36:08.051Z,3.60
2018-07-16T18:38:36.239Z,3.87
2018-07-16T18:41:04.520Z,4.63
2018-07-16T18:43:33.309Z,4.60
2018-07-16T18:46:01.750Z,4.83
2018-07-16T18:48:29.970Z,4.80
2018-07-16T18:50:58.190Z,4.60
2018-07-16T18:53:26.429Z,4.40
2018-07-16T18:55:54.655Z,6.20
2018-07-16T18:58:23.787Z,4.83
2018-07-16T19:00:51.963Z,5.60
2018-07-16T19:03:20.205Z,5.10
2018-07-16T19:05:48.478Z,4.07
2018-07-16T19:08:16.708Z,4.53
2018-07-16T19:10:45.166Z,6.10
2018-07-16T19:13:13.377Z,5.10
2018-07-16T19:15:41.583Z,7.53
2018-07-16T19:18:09.553Z,5.40
2018-07-16T19:20:37.820Z,4.80
2018-07-16T19:23:06.355Z,6.60
2018-07-16T19:25:34.611Z,5.60
2018-07-16T19:28:02.894Z,4.97
2018-07-16T19:30:31.089Z,7.87
2018-07-16T19:32:59.313Z,5.97
2018-07-16T19:35:27.319Z,5.67
2018-07-16T19:37:55.472Z,6.50
2018-07-16T19:40:23.686Z,7.80
2018-07-16T19:42:52.131Z,7.87
2018-07-16T19:45:20.324Z,6.50
2018-07-16T19:47:48.513Z,7.00
2018-07-16T19:50:16.974Z,5.67
2018-07-16T19:52:45.399Z,6.93
2018-07-16T19:55:13.601Z,6.80
2018-07-16T19:57:41.846Z,5.90
2018-07-16T20:00:10.037Z,6.20
2018-07-16T20:02:38.278Z,7.23
2018-07-16T20:05:06.910Z,7.13
2018-07-16T20:07:35.138Z,6.80
2018-07-16T20:10:03.438Z,7.10
2018-07-16T20:12:34.185Z,7.30
2018-07-16T20:15:03.157Z,9.20
2018-07-16T20:17:31.849Z,9.47
2018-07-16T20:20:00.557Z,9.87
2018-07-16T20:22:29.365Z,7.20
2018-07-16T20:24:57.905Z,7.33
2018-07-16T20:27:26.115Z,7.17
2018-07-16T20:29:54.309Z,7.00
2018-07-16T20:32:22.563Z,7.63
2018-07-16T20:34:50.961Z,10.23
2018-07-16T20:37:19.182Z,6.40
2018-07-16T20:39:47.470Z,8.20
2018-07-16T20:42:15.778Z,7.87
2018-07-16T20:44:44.178Z,6.97
2018-07-16T20:47:12.558Z,8.43
2018-07-16T20:49:40.760Z,8.40
2018-07-16T20:52:09.612Z,8.03
2018-07-16T20:54:37.829Z,14.93
2018-07-16T20:57:06.094Z,8.43
2018-07-16T20:59:34.341Z,8.60
2018-07-16T21:02:02.551Z,8.07
2018-07-16T21:04:30.841Z,7.33
2018-07-16T21:06:59.077Z,7.90
2018-07-16T21:09:27.302Z,8.73
2018-07-16T21:11:55.252Z,8.93
2018-07-16T21:14:23.469Z,9.00
2018-07-16T21:16:52.104Z,8.23
2018-07-16T21:19:20.610Z,8.50
2018-07-16T21:21:48.832Z,8.13
2018-07-16T21:24:17.026Z,8.10
2018-07-16T21:26:45.226Z,8.33
2018-07-16T21:29:13.417Z,10.60
2018-07-16T21:31:41.620Z,9.90
2018-07-16T21:34:09.845Z,10.27
2018-07-16T21:36:38.066Z,9.47
2018-07-16T21:39:07.238Z,8.97
2018-07-16T21:41:35.253Z,8.97
2018-07-16T21:44:03.556Z,9.87
2018-07-16T21:46:31.750Z,9.67
2018-07-16T21:49:00.050Z,10.20
2018-07-16T21:51:28.257Z,9.13
2018-07-16T21:53:56.466Z,11.03
2018-07-16T21:56:24.690Z,25.47
2018-07-16T21:58:52.906Z,11.00
2018-07-16T22:01:21.129Z,12.87
2018-07-16T22:03:49.654Z,18.33
2018-07-16T22:06:17.842Z,12.50
2018-07-16T22:08:46.043Z,12.20
2018-07-16T22:11:14.297Z,11.57
2018-07-16T22:13:42.516Z,11.03
2018-07-16T22:16:10.778Z,10.60
2018-07-16T22:18:38.757Z,10.70
2018-07-16T22:21:06.935Z,10.60
2018-07-16T22:23:35.133Z,10.60
2018-07-16T22:26:03.391Z,12.03
2018-07-16T22:28:31.798Z,11.43
2018-07-16T22:31:00.035Z,11.57
2018-07-16T22:33:28.274Z,11.03
2018-07-16T22:35:56.481Z,11.30
2018-07-16T22:38:24.718Z,10.60
2018-07-16T22:40:52.953Z,11.20
2018-07-16T22:43:21.229Z,12.10
2018-07-16T22:45:49.442Z,15.67
2018-07-16T22:48:17.908Z,12.73
2018-07-16T22:50:46.107Z,11.70
2018-07-16T22:53:14.316Z,13.87
2018-07-16T22:55:42.810Z,12.43
2018-07-16T22:58:11.030Z,12.53
2018-07-16T23:00:39.221Z,12.70
2018-07-16T23:03:07.461Z,14.53
2018-07-16T23:05:35.705Z,16.23
2018-07-16T23:08:03.920Z,14.10
2018-07-16T23:10:32.393Z,14.07
2018-07-16T23:13:00.606Z,13.23
2018-07-16T23:15:28.821Z,14.00
2018-07-16T23:17:57.014Z,14.03
2018-07-16T23:20:25.298Z,13.23
2018-07-16T23:22:56.595Z,12.27
2018-07-16T23:25:24.807Z,11.80
2018-07-16T23:27:53.045Z,11.20
2018-07-16T23:30:21.237Z,10.80
2018-07-16T23:32:49.643Z,11.60
2018-07-16T23:35:18.149Z,11.30
2018-07-16T23:37:46.638Z,10.63
2018-07-16T23:40:14.597Z,14.03
2018-07-16T23:42:42.889Z,11.87
2018-07-16T23:45:11.099Z,12.40
2018-07-16T23:47:39.326Z,13.73
2018-07-16T23:50:07.567Z,10.70
2018-07-16T23:52:35.732Z,12.13
2018-07-16T23:55:04.190Z,19.10
2018-07-16T23:57:32.553Z,17.20
